sensor_id;sensor_type;location;lat;lon;timestamp;temperature;humidity
14614;DHT22;7393;51.446;6.800;2024-01-11T00:02:07;-2.90;99.90
14614;DHT22;7393;51.446;6.800;2024-01-11T00:04:36;-2.80;99.90
14614;DHT22;7393;51.446;6.800;2024-01-11T00:07:03;-2.90;99.90
14614;DHT22;7393;51.446;6.800;2024-01-11T00:09:30;-2.90;99.90
14614;DHT22;7393;51.446;6.800;2024-01-11T00:11:56;-2.90;99.90
14614;DHT22;7393;51.446;6.800;2024-01-11T00:14:23;-3.00;99.90
14614;DHT22;7393;51.446;6.800;2024-01-11T00:16:50;-3.00;99.90
14614;DHT22;7393;51.446;6.800;2024-01-11T00:19:17;-3.00;99.90
14614;DHT22;7393;51.446;6.800;2024-01-11T00:21:46;-3.00;99.90
14614;DHT22;7393;51.446;6.800;2024-01-11T00:24:13;-3.00;99.90
14614;DHT22;7393;51.446;6.800;2024-01-11T00:26:40;-3.00;99.90
14614;DHT22;7393;51.446;6.800;2024-01-11T00:29:07;-3.00;99.90
14614;DHT22;7393;51.446;6.800;2024-01-11T00:31:33;-3.00;99.90
14614;DHT22;7393;51.446;6.800;2024-01-11T00:34:00;-3.10;99.90
14614;DHT22;7393;51.446;6.800;2024-01-11T00:36:27;-3.10;99.90
14614;DHT22;7393;51.446;6.800;2024-01-11T00:38:56;-3.10;99.90
14614;DHT22;7393;51.446;6.800;2024-01-11T00:41:23;-3.10;99.90
14614;DHT22;7393;51.446;6.800;2024-01-11T00:43:49;-3.10;99.90
14614;DHT22;7393;51.446;6.800;2024-01-11T00:46:16;-3.10;99.90
14614;DHT22;7393;51.446;6.800;2024-01-11T00:48:43;-3.10;99.90
14614;DHT22;7393;51.446;6.800;2024-01-11T00:51:10;-3.10;99.90
14614;DHT22;7393;51.446;6.800;2024-01-11T00:53:36;-3.20;99.90
14614;DHT22;7393;51.446;6.800;2024-01-11T00:56:05;-3.10;99.90
14614;DHT22;7393;51.446;6.800;2024-01-11T00:58:32;-3.20;99.90
14614;DHT22;7393;51.446;6.800;2024-01-11T01:00:58;-3.20;99.90
14614;DHT22;7393;51.446;6.800;2024-01-11T01:03:25;-3.20;99.90
14614;DHT22;7393;51.446;6.800;2024-01-11T01:05:52;-3.20;99.90
14614;DHT22;7393;51.446;6.800;2024-01-11T01:08:19;-3.20;99.90
14614;DHT22;7393;51.446;6.800;2024-01-11T01:10:45;-3.30;99.90
14614;DHT22;7393;51.446;6.800;2024-01-11T01:13:14;-3.30;99.90
14614;DHT22;7393;51.446;6.800;2024-01-11T01:15:41;-3.30;99.90
14614;DHT22;7393;51.446;6.800;2024-01-11T01:18:07;-3.20;99.90
14614;DHT22;7393;51.446;6.800;2024-01-11T01:20:34;-3.30;99.90
14614;DHT22;7393;51.446;6.800;2024-01-11T01:23:01;-3.20;99.90
14614;DHT22;7393;51.446;6.800;2024-01-11T01:25:28;-3.30;99.90
14614;DHT22;7393;51.446;6.800;2024-01-11T01:27:55;-3.30;99.90
14614;DHT22;7393;51.446;6.800;2024-01-11T01:30:23;-3.30;99.90
14614;DHT22;7393;51.446;6.800;2024-01-11T01:32:50;-3.40;99.90
14614;DHT22;7393;51.446;6.800;2024-01-11T01:35:17;-3.40;99.90
14614;DHT22;7393;51.446;6.800;2024-01-11T01:37:43;-3.30;99.90
14614;DHT22;7393;51.446;6.800;2024-01-11T01:40:11;-3.40;99.90
14614;DHT22;7393;51.446;6.800;2024-01-11T01:42:41;-3.40;99.90
14614;DHT22;7393;51.446;6.800;2024-01-11T01:45:09;-3.40;99.90
14614;DHT22;7393;51.446;6.800;2024-01-11T01:47:37;-3.40;99.90
14614;DHT22;7393;51.446;6.800;2024-01-11T01:50:05;-3.40;99.90
14614;DHT22;7393;51.446;6.800;2024-01-11T01:52:33;-3.40;99.90
14614;DHT22;7393;51.446;6.800;2024-01-11T01:55:01;-3.50;99.90
14614;DHT22;7393;51.446;6.800;2024-01-11T01:57:30;-3.50;99.90
14614;DHT22;7393;51.446;6.800;2024-01-11T01:59:59;-3.50;99.90
14614;DHT22;7393;51.446;6.800;2024-01-11T02:02:27;-3.50;99.90
14614;DHT22;7393;51.446;6.800;2024-01-11T02:04:56;-3.50;99.90
14614;DHT22;7393;51.446;6.800;2024-01-11T02:07:24;-3.50;99.90
14614;DHT22;7393;51.446;6.800;2024-01-11T02:09:52;-3.50;99.90
14614;DHT22;7393;51.446;6.800;2024-01-11T02:12:18;-3.50;99.90
14614;DHT22;7393;51.446;6.800;2024-01-11T02:14:46;-3.50;99.90
14614;DHT22;7393;51.446;6.800;2024-01-11T02:17:12;-3.50;99.90
14614;DHT22;7393;51.446;6.800;2024-01-11T02:19:39;-3.50;99.90
14614;DHT22;7393;51.446;6.800;2024-01-11T02:22:15;-3.50;99.90
14614;DHT22;7393;51.446;6.800;2024-01-11T02:24:44;-3.60;99.90
14614;DHT22;7393;51.446;6.800;2024-01-11T02:27:11;-3.60;99.90
14614;DHT22;7393;51.446;6.800;2024-01-11T02:29:37;-3.60;99.90
14614;DHT22;7393;51.446;6.800;2024-01-11T02:32:04;-3.60;99.90
14614;DHT22;7393;51.446;6.800;2024-01-11T02:34:32;-3.60;99.90
14614;DHT22;7393;51.446;6.800;2024-01-11T02:36:59;-3.70;99.90
14614;DHT22;7393;51.446;6.800;2024-01-11T02:39:26;-3.70;99.90
14614;DHT22;7393;51.446;6.800;2024-01-11T02:41:56;-3.80;99.90
14614;DHT22;7393;51.446;6.800;2024-01-11T02:44:23;-3.70;99.90
14614;DHT22;7393;51.446;6.800;2024-01-11T02:46:50;-3.80;99.90
14614;DHT22;7393;51.446;6.800;2024-01-11T02:49:17;-3.80;99.90
14614;DHT22;7393;51.446;6.800;2024-01-11T02:51:44;-3.80;99.90
14614;DHT22;7393;51.446;6.800;2024-01-11T02:54:11;-3.80;99.90
14614;DHT22;7393;51.446;6.800;2024-01-11T02:56:38;-3.80;99.90
14614;DHT22;7393;51.446;6.800;2024-01-11T02:59:06;-3.80;99.90
14614;DHT22;7393;51.446;6.800;2024-01-11T03:01:33;-3.90;99.90
14614;DHT22;7393;51.446;6.800;2024-01-11T03:04:00;-3.90;99.90
14614;DHT22;7393;51.446;6.800;2024-01-11T03:06:27;-3.90;99.90
14614;DHT22;7393;51.446;6.800;2024-01-11T03:08:53;-4.00;99.90
14614;DHT22;7393;51.446;6.800;2024-01-11T03:11:20;-4.00;99.90
14614;DHT22;7393;51.446;6.800;2024-01-11T03:13:47;-4.10;99.90
14614;DHT22;7393;51.446;6.800;2024-01-11T03:16:15;-4.10;99.90
14614;DHT22;7393;51.446;6.800;2024-01-11T03:18:42;-4.10;99.90
14614;DHT22;7393;51.446;6.800;2024-01-11T03:21:09;-4.20;99.90
14614;DHT22;7393;51.446;6.800;2024-01-11T03:23:35;-4.20;1.00
14614;DHT22;7393;51.446;6.800;2024-01-11T03:26:02;-4.20;1.00
14614;DHT22;7393;51.446;6.800;2024-01-11T03:28:29;-4.20;1.00
14614;DHT22;7393;51.446;6.800;2024-01-11T03:30:57;-4.20;99.90
14614;DHT22;7393;51.446;6.800;2024-01-11T03:33:25;-4.30;99.90
14614;DHT22;7393;51.446;6.800;2024-01-11T03:35:52;-4.30;99.90
14614;DHT22;7393;51.446;6.800;2024-01-11T03:38:18;-4.40;99.90
14614;DHT22;7393;51.446;6.800;2024-01-11T03:40:45;-4.40;1.00
14614;DHT22;7393;51.446;6.800;2024-01-11T03:43:12;-4.40;1.00
14614;DHT22;7393;51.446;6.800;2024-01-11T03:45:39;-4.40;1.00
14614;DHT22;7393;51.446;6.800;2024-01-11T03:48:06;-4.40;1.00
14614;DHT22;7393;51.446;6.800;2024-01-11T03:50:34;-4.40;1.00
14614;DHT22;7393;51.446;6.800;2024-01-11T03:53:01;-4.40;1.00
14614;DHT22;7393;51.446;6.800;2024-01-11T03:55:28;-4.50;1.00
14614;DHT22;7393;51.446;6.800;2024-01-11T03:57:55;-4.50;1.00
14614;DHT22;7393;51.446;6.800;2024-01-11T04:00:21;-4.50;1.00
14614;DHT22;7393;51.446;6.800;2024-01-11T04:02:48;-4.50;1.00
14614;DHT22;7393;51.446;6.800;2024-01-11T04:05:15;-4.50;1.00
14614;DHT22;7393;51.446;6.800;2024-01-11T04:07:43;-4.50;1.00
14614;DHT22;7393;51.446;6.800;2024-01-11T04:10:10;-4.50;1.00
14614;DHT22;7393;51.446;6.800;2024-01-11T04:12:37;-4.50;1.00
14614;DHT22;7393;51.446;6.800;2024-01-11T04:15:04;-4.50;1.00
14614;DHT22;7393;51.446;6.800;2024-01-11T04:17:31;-4.50;1.00
14614;DHT22;7393;51.446;6.800;2024-01-11T04:19:58;-4.60;1.00
14614;DHT22;7393;51.446;6.800;2024-01-11T04:22:26;-4.60;1.00
14614;DHT22;7393;51.446;6.800;2024-01-11T04:24:55;-4.50;1.00
14614;DHT22;7393;51.446;6.800;2024-01-11T04:27:22;-4.60;1.00
14614;DHT22;7393;51.446;6.800;2024-01-11T04:29:49;-4.60;1.00
14614;DHT22;7393;51.446;6.800;2024-01-11T04:32:15;-4.50;1.00
14614;DHT22;7393;51.446;6.800;2024-01-11T04:34:42;-4.50;1.00
14614;DHT22;7393;51.446;6.800;2024-01-11T04:37:09;-4.40;1.00
14614;DHT22;7393;51.446;6.800;2024-01-11T04:39:36;-4.50;1.00
14614;DHT22;7393;51.446;6.800;2024-01-11T04:42:04;-4.50;1.00
14614;DHT22;7393;51.446;6.800;2024-01-11T04:44:31;-4.40;1.00
14614;DHT22;7393;51.446;6.800;2024-01-11T04:46:58;-4.50;1.00
14614;DHT22;7393;51.446;6.800;2024-01-11T04:49:24;-4.50;1.00
14614;DHT22;7393;51.446;6.800;2024-01-11T04:51:51;-4.50;1.00
14614;DHT22;7393;51.446;6.800;2024-01-11T04:54:18;-4.50;1.00
14614;DHT22;7393;51.446;6.800;2024-01-11T04:56:45;-4.50;1.00
14614;DHT22;7393;51.446;6.800;2024-01-11T04:59:13;-4.50;1.00
14614;DHT22;7393;51.446;6.800;2024-01-11T05:01:40;-4.50;1.00
14614;DHT22;7393;51.446;6.800;2024-01-11T05:04:07;-4.50;1.00
14614;DHT22;7393;51.446;6.800;2024-01-11T05:06:34;-4.50;1.00
14614;DHT22;7393;51.446;6.800;2024-01-11T05:09:01;-4.50;1.00
14614;DHT22;7393;51.446;6.800;2024-01-11T05:11:27;-4.50;1.00
14614;DHT22;7393;51.446;6.800;2024-01-11T05:13:54;-4.60;1.00
14614;DHT22;7393;51.446;6.800;2024-01-11T05:16:23;-4.60;1.00
14614;DHT22;7393;51.446;6.800;2024-01-11T05:18:50;-4.60;1.00
14614;DHT22;7393;51.446;6.800;2024-01-11T05:21:17;-4.70;1.00
14614;DHT22;7393;51.446;6.800;2024-01-11T05:23:44;-4.70;1.00
14614;DHT22;7393;51.446;6.800;2024-01-11T05:26:13;-4.70;1.00
14614;DHT22;7393;51.446;6.800;2024-01-11T05:28:39;-4.80;1.00
14614;DHT22;7393;51.446;6.800;2024-01-11T05:31:08;-4.80;1.00
14614;DHT22;7393;51.446;6.800;2024-01-11T05:33:37;-4.80;1.00
14614;DHT22;7393;51.446;6.800;2024-01-11T05:36:04;-4.80;1.00
14614;DHT22;7393;51.446;6.800;2024-01-11T05:38:31;-4.80;1.00
14614;DHT22;7393;51.446;6.800;2024-01-11T05:40:58;-4.80;1.00
14614;DHT22;7393;51.446;6.800;2024-01-11T05:43:25;-4.90;1.00
14614;DHT22;7393;51.446;6.800;2024-01-11T05:45:51;-4.90;1.00
14614;DHT22;7393;51.446;6.800;2024-01-11T05:48:18;-4.80;1.00
14614;DHT22;7393;51.446;6.800;2024-01-11T05:50:46;-4.80;10.30
14614;DHT22;7393;51.446;6.800;2024-01-11T05:53:13;-4.80;38.80
14614;DHT22;7393;51.446;6.800;2024-01-11T05:55:40;-4.80;49.30
14614;DHT22;7393;51.446;6.800;2024-01-11T05:58:07;-4.80;54.30
14614;DHT22;7393;51.446;6.800;2024-01-11T06:00:34;-4.80;99.90
14614;DHT22;7393;51.446;6.800;2024-01-11T06:03:01;-4.80;99.90
14614;DHT22;7393;51.446;6.800;2024-01-11T06:05:28;-4.90;99.90
14614;DHT22;7393;51.446;6.800;2024-01-11T06:07:56;-4.80;99.90
14614;DHT22;7393;51.446;6.800;2024-01-11T06:10:23;-4.90;99.90
14614;DHT22;7393;51.446;6.800;2024-01-11T06:12:49;-4.90;99.90
14614;DHT22;7393;51.446;6.800;2024-01-11T06:15:16;-4.90;99.90
14614;DHT22;7393;51.446;6.800;2024-01-11T06:17:43;-4.90;99.90
14614;DHT22;7393;51.446;6.800;2024-01-11T06:20:11;-4.90;99.90
14614;DHT22;7393;51.446;6.800;2024-01-11T06:22:37;-4.90;99.90
14614;DHT22;7393;51.446;6.800;2024-01-11T06:25:06;-4.90;99.90
14614;DHT22;7393;51.446;6.800;2024-01-11T06:27:33;-4.80;99.90
14614;DHT22;7393;51.446;6.800;2024-01-11T06:30:00;-4.80;99.90
14614;DHT22;7393;51.446;6.800;2024-01-11T06:32:26;-4.90;99.90
14614;DHT22;7393;51.446;6.800;2024-01-11T06:34:53;-4.90;99.90
14614;DHT22;7393;51.446;6.800;2024-01-11T06:37:20;-4.90;99.90
14614;DHT22;7393;51.446;6.800;2024-01-11T06:39:48;-4.90;99.90
14614;DHT22;7393;51.446;6.800;2024-01-11T06:42:16;-4.80;99.90
14614;DHT22;7393;51.446;6.800;2024-01-11T06:44:42;-4.80;99.90
14614;DHT22;7393;51.446;6.800;2024-01-11T06:47:09;-4.80;99.90
14614;DHT22;7393;51.446;6.800;2024-01-11T06:49:38;-4.90;99.90
14614;DHT22;7393;51.446;6.800;2024-01-11T06:52:05;-4.90;99.90
14614;DHT22;7393;51.446;6.800;2024-01-11T06:54:32;-4.90;22.60
14614;DHT22;7393;51.446;6.800;2024-01-11T06:56:59;-5.00;1.00
14614;DHT22;7393;51.446;6.800;2024-01-11T06:59:27;-4.90;1.00
14614;DHT22;7393;51.446;6.800;2024-01-11T07:01:53;-5.00;3.30
14614;DHT22;7393;51.446;6.800;2024-01-11T07:04:20;-5.00;12.30
14614;DHT22;7393;51.446;6.800;2024-01-11T07:06:47;-5.00;26.70
14614;DHT22;7393;51.446;6.800;2024-01-11T07:09:14;-5.00;58.20
14614;DHT22;7393;51.446;6.800;2024-01-11T07:11:43;-5.00;99.90
14614;DHT22;7393;51.446;6.800;2024-01-11T07:14:10;-5.00;99.90
14614;DHT22;7393;51.446;6.800;2024-01-11T07:16:38;-5.00;99.90
14614;DHT22;7393;51.446;6.800;2024-01-11T07:19:05;-5.00;99.90
14614;DHT22;7393;51.446;6.800;2024-01-11T07:21:32;-5.00;99.90
14614;DHT22;7393;51.446;6.800;2024-01-11T07:23:59;-5.00;99.90
14614;DHT22;7393;51.446;6.800;2024-01-11T07:26:25;-5.10;99.90
14614;DHT22;7393;51.446;6.800;2024-01-11T07:28:53;-5.00;99.90
14614;DHT22;7393;51.446;6.800;2024-01-11T07:31:21;-5.00;99.90
14614;DHT22;7393;51.446;6.800;2024-01-11T07:33:49;-5.00;99.90
14614;DHT22;7393;51.446;6.800;2024-01-11T07:36:16;-5.00;99.90
14614;DHT22;7393;51.446;6.800;2024-01-11T07:38:43;-5.00;99.90
14614;DHT22;7393;51.446;6.800;2024-01-11T07:41:10;-5.00;99.90
14614;DHT22;7393;51.446;6.800;2024-01-11T07:43:37;-4.90;99.90
14614;DHT22;7393;51.446;6.800;2024-01-11T07:46:04;-4.90;99.90
14614;DHT22;7393;51.446;6.800;2024-01-11T07:48:33;-4.90;99.90
14614;DHT22;7393;51.446;6.800;2024-01-11T07:51:01;-4.90;99.90
14614;DHT22;7393;51.446;6.800;2024-01-11T07:53:29;-4.90;99.90
14614;DHT22;7393;51.446;6.800;2024-01-11T07:55:57;-4.90;99.90
14614;DHT22;7393;51.446;6.800;2024-01-11T07:58:24;-4.80;99.90
14614;DHT22;7393;51.446;6.800;2024-01-11T08:00:51;-4.90;99.90
14614;DHT22;7393;51.446;6.800;2024-01-11T08:03:17;-4.90;99.90
14614;DHT22;7393;51.446;6.800;2024-01-11T08:05:44;-4.80;99.90
14614;DHT22;7393;51.446;6.800;2024-01-11T08:08:13;-4.80;99.90
14614;DHT22;7393;51.446;6.800;2024-01-11T08:10:39;-4.80;99.90
14614;DHT22;7393;51.446;6.800;2024-01-11T08:13:06;-4.80;99.90
14614;DHT22;7393;51.446;6.800;2024-01-11T08:15:35;-4.80;99.90
14614;DHT22;7393;51.446;6.800;2024-01-11T08:18:04;-4.80;99.90
14614;DHT22;7393;51.446;6.800;2024-01-11T08:20:30;-4.80;99.90
14614;DHT22;7393;51.446;6.800;2024-01-11T08:22:58;-4.80;99.90
14614;DHT22;7393;51.446;6.800;2024-01-11T08:25:26;-4.70;1.00
14614;DHT22;7393;51.446;6.800;2024-01-11T08:27:53;-4.70;1.00
14614;DHT22;7393;51.446;6.800;2024-01-11T08:30:20;-4.60;1.00
14614;DHT22;7393;51.446;6.800;2024-01-11T08:32:47;-4.60;1.00
14614;DHT22;7393;51.446;6.800;2024-01-11T08:35:14;-4.60;1.00
14614;DHT22;7393;51.446;6.800;2024-01-11T08:37:42;-4.60;1.00
14614;DHT22;7393;51.446;6.800;2024-01-11T08:40:09;-4.50;1.00
14614;DHT22;7393;51.446;6.800;2024-01-11T08:42:38;-4.50;99.90
14614;DHT22;7393;51.446;6.800;2024-01-11T08:45:05;-4.40;99.90
14614;DHT22;7393;51.446;6.800;2024-01-11T08:47:33;-4.40;99.90
14614;DHT22;7393;51.446;6.800;2024-01-11T08:50:00;-4.30;99.90
14614;DHT22;7393;51.446;6.800;2024-01-11T08:52:31;-4.30;99.90
14614;DHT22;7393;51.446;6.800;2024-01-11T08:54:58;-4.30;99.90
14614;DHT22;7393;51.446;6.800;2024-01-11T08:57:25;-4.30;1.00
14614;DHT22;7393;51.446;6.800;2024-01-11T08:59:53;-4.30;1.00
14614;DHT22;7393;51.446;6.800;2024-01-11T09:02:21;-4.20;1.00
14614;DHT22;7393;51.446;6.800;2024-01-11T09:04:47;-4.20;1.00
14614;DHT22;7393;51.446;6.800;2024-01-11T09:07:14;-4.20;1.00
14614;DHT22;7393;51.446;6.800;2024-01-11T09:09:41;-4.20;99.90
14614;DHT22;7393;51.446;6.800;2024-01-11T09:12:08;-4.10;99.90
14614;DHT22;7393;51.446;6.800;2024-01-11T09:14:35;-4.00;1.00
14614;DHT22;7393;51.446;6.800;2024-01-11T09:17:04;-4.00;1.00
14614;DHT22;7393;51.446;6.800;2024-01-11T09:19:31;-4.20;99.90
14614;DHT22;7393;51.446;6.800;2024-01-11T09:21:59;-4.00;99.90
14614;DHT22;7393;51.446;6.800;2024-01-11T09:24:26;-3.90;99.90
14614;DHT22;7393;51.446;6.800;2024-01-11T09:26:53;-3.90;99.90
14614;DHT22;7393;51.446;6.800;2024-01-11T09:29:19;-3.80;99.90
14614;DHT22;7393;51.446;6.800;2024-01-11T09:31:46;-3.80;99.90
14614;DHT22;7393;51.446;6.800;2024-01-11T09:34:14;-3.70;99.90
14614;DHT22;7393;51.446;6.800;2024-01-11T09:36:41;-3.60;99.90
14614;DHT22;7393;51.446;6.800;2024-01-11T09:39:08;-3.60;99.90
14614;DHT22;7393;51.446;6.800;2024-01-11T09:41:37;-3.50;99.90
14614;DHT22;7393;51.446;6.800;2024-01-11T09:44:05;-3.50;99.90
14614;DHT22;7393;51.446;6.800;2024-01-11T09:46:32;-3.40;99.90
14614;DHT22;7393;51.446;6.800;2024-01-11T09:49:00;-3.30;99.90
14614;DHT22;7393;51.446;6.800;2024-01-11T09:51:32;-3.30;99.90
14614;DHT22;7393;51.446;6.800;2024-01-11T09:54:00;-3.20;99.90
14614;DHT22;7393;51.446;6.800;2024-01-11T09:56:27;-3.20;99.90
14614;DHT22;7393;51.446;6.800;2024-01-11T09:58:54;-3.10;99.90
14614;DHT22;7393;51.446;6.800;2024-01-11T10:01:21;-3.10;79.20
14614;DHT22;7393;51.446;6.800;2024-01-11T10:03:48;-3.00;1.00
14614;DHT22;7393;51.446;6.800;2024-01-11T10:06:17;-2.90;1.00
14614;DHT22;7393;51.446;6.800;2024-01-11T10:08:45;-2.90;1.00
14614;DHT22;7393;51.446;6.800;2024-01-11T10:11:12;-2.80;1.00
14614;DHT22;7393;51.446;6.800;2024-01-11T10:13:38;-2.70;1.00
14614;DHT22;7393;51.446;6.800;2024-01-11T10:16:06;-2.70;1.00
14614;DHT22;7393;51.446;6.800;2024-01-11T10:18:35;-2.60;1.00
14614;DHT22;7393;51.446;6.800;2024-01-11T10:21:02;-2.50;1.00
14614;DHT22;7393;51.446;6.800;2024-01-11T10:23:29;-2.50;1.00
14614;DHT22;7393;51.446;6.800;2024-01-11T10:25:57;-2.40;1.00
14614;DHT22;7393;51.446;6.800;2024-01-11T10:28:25;-2.30;1.00
14614;DHT22;7393;51.446;6.800;2024-01-11T10:30:52;-2.30;1.00
14614;DHT22;7393;51.446;6.800;2024-01-11T10:33:20;-2.20;1.00
14614;DHT22;7393;51.446;6.800;2024-01-11T10:35:47;-2.20;1.00
14614;DHT22;7393;51.446;6.800;2024-01-11T10:38:15;-2.10;1.00
14614;DHT22;7393;51.446;6.800;2024-01-11T10:40:43;-2.10;1.00
14614;DHT22;7393;51.446;6.800;2024-01-11T10:43:12;-2.00;1.00
14614;DHT22;7393;51.446;6.800;2024-01-11T10:45:42;-1.90;1.00
14614;DHT22;7393;51.446;6.800;2024-01-11T10:48:14;-1.90;1.00
14614;DHT22;7393;51.446;6.800;2024-01-11T10:50:42;-1.90;1.00
14614;DHT22;7393;51.446;6.800;2024-01-11T10:53:19;-1.70;1.00
14614;DHT22;7393;51.446;6.800;2024-01-11T10:55:51;-1.70;1.00
14614;DHT22;7393;51.446;6.800;2024-01-11T10:58:19;-1.60;1.00
14614;DHT22;7393;51.446;6.800;2024-01-11T11:00:47;-1.50;1.00
14614;DHT22;7393;51.446;6.800;2024-01-11T11:03:16;-1.50;1.00
14614;DHT22;7393;51.446;6.800;2024-01-11T11:05:44;-1.40;1.00
14614;DHT22;7393;51.446;6.800;2024-01-11T11:08:12;-1.30;1.00
14614;DHT22;7393;51.446;6.800;2024-01-11T11:10:40;-1.30;1.00
14614;DHT22;7393;51.446;6.800;2024-01-11T11:13:09;-1.20;1.00
14614;DHT22;7393;51.446;6.800;2024-01-11T11:15:39;-1.10;1.00
14614;DHT22;7393;51.446;6.800;2024-01-11T11:18:06;-1.00;1.00
14614;DHT22;7393;51.446;6.800;2024-01-11T11:20:33;-0.80;1.00
14614;DHT22;7393;51.446;6.800;2024-01-11T11:23:04;-0.80;1.00
14614;DHT22;7393;51.446;6.800;2024-01-11T11:25:31;-0.70;1.00
14614;DHT22;7393;51.446;6.800;2024-01-11T11:27:58;-0.70;1.00
14614;DHT22;7393;51.446;6.800;2024-01-11T11:30:27;-0.70;1.00
14614;DHT22;7393;51.446;6.800;2024-01-11T11:32:55;-0.70;1.00
14614;DHT22;7393;51.446;6.800;2024-01-11T11:35:23;-0.60;1.00
14614;DHT22;7393;51.446;6.800;2024-01-11T11:37:55;-0.60;1.00
14614;DHT22;7393;51.446;6.800;2024-01-11T11:40:22;-0.50;1.00
14614;DHT22;7393;51.446;6.800;2024-01-11T11:42:58;-0.50;1.00
14614;DHT22;7393;51.446;6.800;2024-01-11T11:45:28;-0.50;1.00
14614;DHT22;7393;51.446;6.800;2024-01-11T11:47:56;-0.40;1.00
14614;DHT22;7393;51.446;6.800;2024-01-11T11:50:23;-0.40;1.00
14614;DHT22;7393;51.446;6.800;2024-01-11T11:52:54;-0.30;1.00
14614;DHT22;7393;51.446;6.800;2024-01-11T11:55:23;-0.30;1.00
14614;DHT22;7393;51.446;6.800;2024-01-11T11:57:50;-0.20;1.00
14614;DHT22;7393;51.446;6.800;2024-01-11T12:00:17;-0.20;1.00
14614;DHT22;7393;51.446;6.800;2024-01-11T12:02:46;-0.10;1.00
14614;DHT22;7393;51.446;6.800;2024-01-11T12:05:16;0.00;1.00
14614;DHT22;7393;51.446;6.800;2024-01-11T12:07:44;0.00;1.00
14614;DHT22;7393;51.446;6.800;2024-01-11T12:10:11;0.10;1.00
14614;DHT22;7393;51.446;6.800;2024-01-11T12:12:39;0.20;1.00
14614;DHT22;7393;51.446;6.800;2024-01-11T12:15:07;0.30;1.00
14614;DHT22;7393;51.446;6.800;2024-01-11T12:17:34;0.40;1.00
14614;DHT22;7393;51.446;6.800;2024-01-11T12:20:01;0.50;1.00
14614;DHT22;7393;51.446;6.800;2024-01-11T12:22:30;0.60;1.00
14614;DHT22;7393;51.446;6.800;2024-01-11T12:24:57;0.70;1.00
14614;DHT22;7393;51.446;6.800;2024-01-11T12:27:24;0.80;1.00
14614;DHT22;7393;51.446;6.800;2024-01-11T12:29:52;0.90;1.00
14614;DHT22;7393;51.446;6.800;2024-01-11T12:32:19;0.80;1.00
14614;DHT22;7393;51.446;6.800;2024-01-11T12:34:46;0.90;1.00
14614;DHT22;7393;51.446;6.800;2024-01-11T12:37:15;0.80;1.00
14614;DHT22;7393;51.446;6.800;2024-01-11T12:39:43;0.80;1.00
14614;DHT22;7393;51.446;6.800;2024-01-11T12:42:10;0.90;1.00
14614;DHT22;7393;51.446;6.800;2024-01-11T12:44:37;0.90;1.00
14614;DHT22;7393;51.446;6.800;2024-01-11T12:47:05;0.90;1.00
14614;DHT22;7393;51.446;6.800;2024-01-11T12:49:34;1.00;1.00
14614;DHT22;7393;51.446;6.800;2024-01-11T12:52:00;1.00;1.00
14614;DHT22;7393;51.446;6.800;2024-01-11T12:54:27;1.00;1.00
14614;DHT22;7393;51.446;6.800;2024-01-11T12:56:55;1.10;1.00
14614;DHT22;7393;51.446;6.800;2024-01-11T12:59:25;1.10;1.00
14614;DHT22;7393;51.446;6.800;2024-01-11T13:01:52;1.20;1.00
14614;DHT22;7393;51.446;6.800;2024-01-11T13:04:19;1.10;1.00
14614;DHT22;7393;51.446;6.800;2024-01-11T13:06:46;1.10;1.00
14614;DHT22;7393;51.446;6.800;2024-01-11T13:09:13;1.10;1.00
14614;DHT22;7393;51.446;6.800;2024-01-11T13:11:40;1.10;1.00
14614;DHT22;7393;51.446;6.800;2024-01-11T13:14:08;1.20;99.90
14614;DHT22;7393;51.446;6.800;2024-01-11T13:16:40;1.20;99.90
14614;DHT22;7393;51.446;6.800;2024-01-11T13:19:07;1.10;99.90
14614;DHT22;7393;51.446;6.800;2024-01-11T13:21:33;1.10;99.90
14614;DHT22;7393;51.446;6.800;2024-01-11T13:24:00;1.10;99.90
14614;DHT22;7393;51.446;6.800;2024-01-11T13:26:27;1.00;99.90
14614;DHT22;7393;51.446;6.800;2024-01-11T13:28:54;0.90;99.90
14614;DHT22;7393;51.446;6.800;2024-01-11T13:31:22;1.00;99.90
14614;DHT22;7393;51.446;6.800;2024-01-11T13:33:49;0.90;99.90
14614;DHT22;7393;51.446;6.800;2024-01-11T13:36:15;1.00;99.90
14614;DHT22;7393;51.446;6.800;2024-01-11T13:38:42;1.00;99.90
14614;DHT22;7393;51.446;6.800;2024-01-11T13:41:09;1.00;99.90
14614;DHT22;7393;51.446;6.800;2024-01-11T13:43:36;1.00;99.90
14614;DHT22;7393;51.446;6.800;2024-01-11T13:46:03;1.00;99.90
14614;DHT22;7393;51.446;6.800;2024-01-11T13:48:32;1.10;99.90
14614;DHT22;7393;51.446;6.800;2024-01-11T13:50:59;1.00;99.90
14614;DHT22;7393;51.446;6.800;2024-01-11T13:53:28;0.90;99.90
14614;DHT22;7393;51.446;6.800;2024-01-11T13:55:55;0.90;99.90
14614;DHT22;7393;51.446;6.800;2024-01-11T13:58:22;0.90;99.90
14614;DHT22;7393;51.446;6.800;2024-01-11T14:00:49;0.90;99.90
14614;DHT22;7393;51.446;6.800;2024-01-11T14:03:16;0.90;99.90
14614;DHT22;7393;51.446;6.800;2024-01-11T14:05:44;1.10;99.90
14614;DHT22;7393;51.446;6.800;2024-01-11T14:08:10;1.10;99.90
14614;DHT22;7393;51.446;6.800;2024-01-11T14:10:37;1.20;99.90
14614;DHT22;7393;51.446;6.800;2024-01-11T14:13:04;1.10;99.90
14614;DHT22;7393;51.446;6.800;2024-01-11T14:15:31;1.10;99.90
14614;DHT22;7393;51.446;6.800;2024-01-11T14:17:57;1.10;99.90
14614;DHT22;7393;51.446;6.800;2024-01-11T14:20:24;1.10;99.90
14614;DHT22;7393;51.446;6.800;2024-01-11T14:22:52;1.10;99.90
14614;DHT22;7393;51.446;6.800;2024-01-11T14:25:20;1.00;99.90
14614;DHT22;7393;51.446;6.800;2024-01-11T14:27:47;1.00;99.90
14614;DHT22;7393;51.446;6.800;2024-01-11T14:30:14;1.00;99.90
14614;DHT22;7393;51.446;6.800;2024-01-11T14:32:41;1.10;99.90
14614;DHT22;7393;51.446;6.800;2024-01-11T14:35:09;1.00;99.90
14614;DHT22;7393;51.446;6.800;2024-01-11T14:37:37;1.00;99.90
14614;DHT22;7393;51.446;6.800;2024-01-11T14:40:06;1.00;99.90
14614;DHT22;7393;51.446;6.800;2024-01-11T14:42:35;0.90;99.90
14614;DHT22;7393;51.446;6.800;2024-01-11T14:45:02;0.90;99.90
14614;DHT22;7393;51.446;6.800;2024-01-11T14:47:29;1.00;99.90
14614;DHT22;7393;51.446;6.800;2024-01-11T14:49:56;0.90;99.90
14614;DHT22;7393;51.446;6.800;2024-01-11T14:52:24;0.90;99.90
14614;DHT22;7393;51.446;6.800;2024-01-11T14:54:51;0.90;99.90
14614;DHT22;7393;51.446;6.800;2024-01-11T14:57:19;0.80;99.90
14614;DHT22;7393;51.446;6.800;2024-01-11T14:59:46;0.80;99.90
14614;DHT22;7393;51.446;6.800;2024-01-11T15:02:13;0.80;99.90
14614;DHT22;7393;51.446;6.800;2024-01-11T15:04:40;0.80;99.90
14614;DHT22;7393;51.446;6.800;2024-01-11T15:07:07;0.70;99.90
14614;DHT22;7393;51.446;6.800;2024-01-11T15:09:34;0.70;99.90
14614;DHT22;7393;51.446;6.800;2024-01-11T15:12:01;0.70;99.90
14614;DHT22;7393;51.446;6.800;2024-01-11T15:14:29;0.80;99.90
14614;DHT22;7393;51.446;6.800;2024-01-11T15:16:56;0.80;99.90
14614;DHT22;7393;51.446;6.800;2024-01-11T15:19:23;0.80;99.90
14614;DHT22;7393;51.446;6.800;2024-01-11T15:21:51;0.70;99.90
14614;DHT22;7393;51.446;6.800;2024-01-11T15:24:17;0.70;99.90
14614;DHT22;7393;51.446;6.800;2024-01-11T15:26:45;0.70;99.90
14614;DHT22;7393;51.446;6.800;2024-01-11T15:29:12;0.70;99.90
14614;DHT22;7393;51.446;6.800;2024-01-11T15:31:40;0.70;99.90
14614;DHT22;7393;51.446;6.800;2024-01-11T15:34:10;0.70;99.90
14614;DHT22;7393;51.446;6.800;2024-01-11T15:36:37;0.70;99.90
14614;DHT22;7393;51.446;6.800;2024-01-11T15:39:05;0.60;99.90
14614;DHT22;7393;51.446;6.800;2024-01-11T15:41:33;0.50;99.90
14614;DHT22;7393;51.446;6.800;2024-01-11T15:43:59;0.50;99.90
14614;DHT22;7393;51.446;6.800;2024-01-11T15:46:26;0.50;99.90
14614;DHT22;7393;51.446;6.800;2024-01-11T15:48:54;0.50;99.90
14614;DHT22;7393;51.446;6.800;2024-01-11T15:51:21;0.40;1.00
14614;DHT22;7393;51.446;6.800;2024-01-11T15:53:48;0.30;1.00
14614;DHT22;7393;51.446;6.800;2024-01-11T15:56:15;0.30;1.00
14614;DHT22;7393;51.446;6.800;2024-01-11T15:58:41;0.20;1.00